Terminal Aerodrome Forecast
Issued by NWS Louisville, KY

Home | Current Version | Previous Version | Text Only | Print | Product List | Glossary On
Versions: 1 2 3 4 5 6 7 8 9 10 11 12 13 14 15 16 17 18
000
FTUS43 KLMK 221120
TAFBWG
TAF
KBWG 221120Z 2212/2312 14006KT P6SM FEW100 SCT250 WS020/18040KT
     FM221430 17015G22KT P6SM FEW090 SCT200
     FM222200 17008KT P6SM -SHRA BKN035
     FM230400 18005KT 4SM -SHRA BR BKN015
     FM230900 29004KT 3SM -SHRA BR BKN008=

USA.gov is the U.S. government's official web portal to all federal, state and local government web resources and services.